createdAt,value
2023-03-07T00:00:00.212Z,92.8
2023-03-07T00:05:00.092Z,92.7
2023-03-07T00:10:00.138Z,92.5
2023-03-07T00:15:00.127Z,92.5
2023-03-07T00:20:00.175Z,92.3
2023-03-07T00:25:00.125Z,92
2023-03-07T00:30:00.105Z,91.9
2023-03-07T00:35:00.126Z,91.8
2023-03-07T00:40:00.158Z,91.7
2023-03-07T00:45:00.084Z,91.5
2023-03-07T00:50:00.100Z,91.3
2023-03-07T00:55:00.098Z,91.1
2023-03-07T01:00:00.193Z,91.1
2023-03-07T01:05:00.109Z,91.1
2023-03-07T01:10:00.110Z,91.2
2023-03-07T01:15:00.105Z,91.1
2023-03-07T01:20:00.145Z,91.1
2023-03-07T01:25:00.120Z,91.1
2023-03-07T01:30:00.144Z,91.1
2023-03-07T01:35:00.133Z,91.1
2023-03-07T01:40:00.155Z,91.2
2023-03-07T01:45:00.115Z,91.2
2023-03-07T01:50:00.165Z,91.1
2023-03-07T01:55:00.139Z,91.1
2023-03-07T02:00:00.163Z,91.1
2023-03-07T02:05:00.132Z,91
2023-03-07T02:10:00.106Z,90.8
2023-03-07T02:15:00.147Z,90.7
2023-03-07T02:20:00.216Z,90.7
2023-03-07T02:25:00.116Z,90.5
2023-03-07T02:30:00.135Z,90.4
2023-03-07T02:35:00.104Z,90.2
2023-03-07T02:40:00.116Z,90.1
2023-03-07T02:45:00.118Z,89.3
2023-03-07T02:50:00.170Z,89.7
2023-03-07T02:55:00.119Z,89.2
2023-03-07T03:00:00.184Z,88.9
2023-03-07T03:05:00.225Z,88.4
2023-03-07T03:10:00.106Z,88.2
2023-03-07T03:15:00.146Z,87.6
2023-03-07T03:20:00.178Z,87.2
2023-03-07T03:25:00.106Z,87
2023-03-07T03:30:00.133Z,86.1
2023-03-07T03:35:00.148Z,85.6
2023-03-07T03:40:00.151Z,85.5
2023-03-07T03:45:00.117Z,84.8
2023-03-07T03:50:00.126Z,84.4
2023-03-07T03:55:00.109Z,83.7
2023-03-07T04:00:00.192Z,83.5
2023-03-07T04:05:00.112Z,83.5
2023-03-07T04:10:00.168Z,82.9
2023-03-07T04:15:00.127Z,82.9
2023-03-07T04:20:00.157Z,83.2
2023-03-07T04:25:00.097Z,82.7
2023-03-07T04:30:00.106Z,82.3
2023-03-07T04:35:00.164Z,82.1
2023-03-07T04:40:00.172Z,82.1
2023-03-07T04:45:00.114Z,82.1
2023-03-07T04:50:00.116Z,82.1
2023-03-07T04:55:00.096Z,81.6
2023-03-07T05:00:00.182Z,81.5
2023-03-07T05:05:00.118Z,81.4
2023-03-07T05:10:00.148Z,81.4
2023-03-07T05:15:00.110Z,81.4
2023-03-07T05:20:00.147Z,81.3
2023-03-07T05:25:00.122Z,81.2
2023-03-07T05:30:00.141Z,81.2
2023-03-07T05:35:00.102Z,81.3
2023-03-07T05:40:00.135Z,81.6
2023-03-07T05:45:00.107Z,81.9
2023-03-07T05:50:00.142Z,82.1
2023-03-07T05:55:00.096Z,82.3
2023-03-07T06:00:00.164Z,82.4
2023-03-07T06:05:00.122Z,82.6
2023-03-07T06:10:00.111Z,82.8
2023-03-07T06:15:00.145Z,82.9
2023-03-07T06:20:00.159Z,83.1
2023-03-07T06:25:00.108Z,83.4
2023-03-07T06:30:00.147Z,83.5
2023-03-07T06:35:00.123Z,83.7
2023-03-07T06:40:00.125Z,83.9
2023-03-07T06:45:00.104Z,84.1
2023-03-07T06:50:00.133Z,84.3
2023-03-07T06:55:00.117Z,84.3
2023-03-07T07:00:00.181Z,84.3
2023-03-07T07:05:01.239Z,84.4
2023-03-07T07:10:00.120Z,84.4
2023-03-07T07:15:00.162Z,84.5
2023-03-07T07:20:00.128Z,84.3
2023-03-07T07:25:00.093Z,84.3
2023-03-07T07:30:00.123Z,84.3
2023-03-07T07:35:00.113Z,84
2023-03-07T07:40:00.190Z,84
2023-03-07T07:45:00.123Z,83.6
2023-03-07T07:50:00.149Z,83.8
2023-03-07T07:55:00.142Z,83.7
2023-03-07T08:00:00.265Z,83.3
2023-03-07T08:05:00.120Z,82.8
2023-03-07T08:10:00.121Z,82.9
2023-03-07T08:15:00.149Z,82.7
2023-03-07T08:20:01.389Z,82.2
2023-03-07T08:25:00.118Z,81.9
2023-03-07T08:30:00.133Z,81.6
2023-03-07T08:35:00.137Z,80.8
2023-03-07T08:40:00.170Z,80.6
2023-03-07T08:45:00.152Z,80
2023-03-07T08:50:00.133Z,79.5
2023-03-07T08:55:00.125Z,78.9
2023-03-07T09:00:00.207Z,78.2
2023-03-07T09:05:00.254Z,77.7
2023-03-07T09:10:00.129Z,77.4
2023-03-07T09:15:00.131Z,77.2
2023-03-07T09:20:00.206Z,75.8
2023-03-07T09:25:00.124Z,75.4
2023-03-07T09:30:00.179Z,75
2023-03-07T09:35:00.161Z,74.8
2023-03-07T09:40:00.179Z,73.5
2023-03-07T09:45:00.146Z,72.9
2023-03-07T09:50:00.169Z,72.5
2023-03-07T09:55:00.217Z,72.7
2023-03-07T10:00:00.181Z,73.2
2023-03-07T10:05:00.140Z,73.4
2023-03-07T10:10:00.145Z,73
2023-03-07T10:15:00.121Z,72.5
2023-03-07T10:20:00.172Z,72.8
2023-03-07T10:25:00.116Z,73
2023-03-07T10:30:00.186Z,72.8
2023-03-07T10:35:00.150Z,73.2
2023-03-07T10:40:00.153Z,72.6
2023-03-07T10:45:00.151Z,72.4
2023-03-07T10:50:00.150Z,72.3
2023-03-07T10:55:00.160Z,72.7
2023-03-07T11:00:00.189Z,73.3
2023-03-07T11:05:00.259Z,73.6
2023-03-07T11:10:00.179Z,74.1
2023-03-07T11:15:00.167Z,74.1
2023-03-07T11:20:00.168Z,74.2
2023-03-07T11:25:00.238Z,74.2
2023-03-07T11:30:00.118Z,74
2023-03-07T11:35:00.113Z,73.4
2023-03-07T11:40:00.167Z,72.6
2023-03-07T11:45:00.119Z,71.8
2023-03-07T11:50:00.132Z,71.5
2023-03-07T11:55:00.131Z,70.9
2023-03-07T12:00:00.193Z,70.9
2023-03-07T12:05:00.147Z,71.2
2023-03-07T12:10:00.126Z,70.6
2023-03-07T12:15:00.121Z,70
2023-03-07T12:20:00.197Z,70
2023-03-07T12:25:00.100Z,69.5
2023-03-07T12:30:00.146Z,68.7
2023-03-07T12:35:00.162Z,68.4
2023-03-07T12:40:00.206Z,68.2
2023-03-07T12:45:00.140Z,68.2
2023-03-07T12:50:00.225Z,68
2023-03-07T12:55:00.160Z,68.4
2023-03-07T13:00:00.174Z,68.2
2023-03-07T13:05:00.151Z,68.5
2023-03-07T13:10:00.161Z,68.8
2023-03-07T13:15:00.139Z,68.8
2023-03-07T13:20:00.186Z,69.4
2023-03-07T13:25:00.135Z,69.9
2023-03-07T13:30:00.117Z,70.3
2023-03-07T13:35:00.151Z,70.6
2023-03-07T13:40:00.135Z,70.9
2023-03-07T13:45:00.113Z,70.9
2023-03-07T13:50:00.128Z,70.9
2023-03-07T13:55:00.122Z,70.8
2023-03-07T14:00:00.180Z,70.6
2023-03-07T14:05:00.151Z,70.6
2023-03-07T14:10:01.152Z,70.5
2023-03-07T14:15:00.172Z,70.4
2023-03-07T14:20:00.153Z,70.4
2023-03-07T14:25:00.126Z,70.2
2023-03-07T14:30:00.182Z,70.4
2023-03-07T14:35:00.125Z,70.6
2023-03-07T14:40:00.177Z,70.3
2023-03-07T14:45:00.152Z,91.2
2023-03-07T14:50:00.186Z,99.9
2023-03-07T14:55:00.280Z,99.9
2023-03-07T15:00:00.262Z,99.9
2023-03-07T15:05:00.120Z,99.9
2023-03-07T15:10:00.116Z,99.9
2023-03-07T15:15:00.160Z,99.9
2023-03-07T15:20:00.311Z,99.9
2023-03-07T15:25:00.129Z,99.9
2023-03-07T15:30:00.214Z,99.9
2023-03-07T15:35:00.112Z,99.9
2023-03-07T15:40:00.311Z,99.9
2023-03-07T15:45:00.152Z,99.9
2023-03-07T15:50:00.137Z,99.9
2023-03-07T15:55:00.160Z,99.9
2023-03-07T16:00:00.189Z,99.9
2023-03-07T16:05:00.135Z,99.9
2023-03-07T16:10:00.106Z,99.9
2023-03-07T16:15:00.139Z,99.9
2023-03-07T16:20:00.194Z,99.9
2023-03-07T16:25:00.128Z,99.9
2023-03-07T16:30:00.219Z,99.9
2023-03-07T16:35:00.133Z,99.9
2023-03-07T16:40:00.120Z,99.9
2023-03-07T16:45:00.145Z,99.9
2023-03-07T16:50:00.154Z,99.9
2023-03-07T16:55:00.121Z,99.9
2023-03-07T17:00:00.205Z,93.8
2023-03-07T17:05:00.163Z,93.9
2023-03-07T17:10:00.315Z,94
2023-03-07T17:15:00.126Z,94.1
2023-03-07T17:20:00.304Z,94.2
2023-03-07T17:25:00.114Z,94.2
2023-03-07T17:30:00.175Z,94.3
2023-03-07T17:35:00.095Z,94.5
2023-03-07T17:40:00.295Z,94.6
2023-03-07T17:45:00.143Z,94.7
2023-03-07T17:50:00.134Z,94.8
2023-03-07T17:55:00.155Z,94.8
2023-03-07T18:00:00.161Z,94.8
2023-03-07T18:05:00.131Z,94.9
2023-03-07T18:10:07.753Z,94.9
2023-03-07T18:15:00.211Z,94.9
2023-03-07T18:20:00.203Z,94.8
2023-03-07T18:25:00.108Z,95.1
2023-03-07T18:30:00.156Z,95.2
2023-03-07T18:35:00.158Z,95.3
2023-03-07T18:40:00.138Z,95.4
2023-03-07T18:45:00.119Z,95.4
2023-03-07T18:50:00.111Z,95.6
2023-03-07T18:55:00.159Z,95.9
2023-03-07T19:00:00.164Z,96
2023-03-07T19:05:00.123Z,96.2
2023-03-07T19:10:00.153Z,96.3
2023-03-07T19:15:00.102Z,96.4
2023-03-07T19:20:00.180Z,96.4
2023-03-07T19:25:00.121Z,96.5
2023-03-07T19:30:00.181Z,96.6
2023-03-07T19:35:00.161Z,96.7
2023-03-07T19:40:00.171Z,96.7
2023-03-07T19:45:00.211Z,96.8
2023-03-07T19:50:00.142Z,96.8
2023-03-07T19:55:00.128Z,96.9
2023-03-07T20:00:00.183Z,96.9
2023-03-07T20:05:00.118Z,96.9
2023-03-07T20:10:00.106Z,97
2023-03-07T20:15:00.190Z,97.1
2023-03-07T20:20:00.179Z,97.1
2023-03-07T20:25:00.164Z,97.1
2023-03-07T20:30:00.123Z,97.2
2023-03-07T20:35:00.129Z,97.2
2023-03-07T20:40:00.144Z,97.3
2023-03-07T20:45:00.138Z,97.3
2023-03-07T20:50:00.162Z,97.3
2023-03-07T20:55:00.142Z,97.4
2023-03-07T21:00:00.320Z,97.4
2023-03-07T21:05:00.133Z,97.4
2023-03-07T21:10:00.139Z,97.4
2023-03-07T21:15:00.186Z,97.4
2023-03-07T21:20:00.145Z,97.4
2023-03-07T21:25:00.102Z,97.4
2023-03-07T21:30:00.174Z,97.4
2023-03-07T21:35:00.142Z,97.4
2023-03-07T21:40:00.171Z,97.2
2023-03-07T21:45:00.126Z,97.7
2023-03-07T21:50:00.128Z,97.8
2023-03-07T21:55:00.116Z,97.8
2023-03-07T22:00:00.176Z,97.8
2023-03-07T22:05:00.114Z,97.8
2023-03-07T22:10:00.147Z,97.8
2023-03-07T22:15:00.127Z,97.8
2023-03-07T22:20:00.134Z,97.8
2023-03-07T22:25:00.114Z,97.8
2023-03-07T22:30:00.128Z,97.8
2023-03-07T22:35:00.115Z,97.8
2023-03-07T22:40:00.248Z,97.8
2023-03-07T22:45:00.139Z,97.9
2023-03-07T22:50:00.116Z,98
2023-03-07T22:55:00.095Z,98
2023-03-07T23:00:00.143Z,98.4
2023-03-07T23:05:00.125Z,98.5
2023-03-07T23:10:00.121Z,98.5
2023-03-07T23:15:00.100Z,98.5
2023-03-07T23:20:00.121Z,98.5
2023-03-07T23:25:00.128Z,98.4
2023-03-07T23:30:00.132Z,98.5
2023-03-07T23:35:00.109Z,98.5
2023-03-07T23:40:00.149Z,98.5
2023-03-07T23:45:00.132Z,98.5
2023-03-07T23:50:00.133Z,98.6
2023-03-07T23:55:00.136Z,98.7
